Time;durP1;ratioP1;P1;durP2;ratioP2;P2;SDS_P1;SDS_P2;PMS_P1;PMS_P2;Temp;Humidity;BMP_temperature;BMP_pressure;BME280_temperature;BME280_humidity;BME280_pressure;Samples;Min_cycle;Max_cycle;Signal;HPM_P1;HPM_P2
2023/08/03 00:19:08;;;;;;;1999.90;999.90;;;;;;;;;;5928031;23;20256;-74
2023/08/03 00:21:53;;;;;;;1999.90;999.90;;;;;;;;;;4970724;28;20607;-75
2023/08/03 00:24:38;;;;;;;1999.90;999.90;;;;;;;;;;4971891;28;20216;-74
2023/08/03 00:27:22;;;;;;;1999.90;999.90;;;;;;;;;;4975325;28;20308;-74
2023/08/03 00:30:08;;;;;;;1999.90;999.90;;;;;;;;;;4966897;28;20677;-73
2023/08/03 00:32:53;;;;;;;1999.90;999.90;;;;;;;;;;4954641;28;20292;-75
2023/08/03 00:35:39;;;;;;;1999.90;999.90;;;;;;;;;;4954015;28;20264;-74
2023/08/03 00:38:24;;;;;;;1999.90;999.90;;;;;;;;;;4949652;28;20213;-73
2023/08/03 00:41:09;;;;;;;1999.90;999.90;;;;;;;;;;4949832;28;20921;-73
2023/08/03 00:43:54;;;;;;;1999.90;999.90;;;;;;;;;;4955982;28;20729;-74
2023/08/03 00:46:38;;;;;;;1999.90;999.90;;;;;;;;;;4958074;28;20345;-76
2023/08/03 00:49:27;;;;;;;1999.90;999.90;;;;;;;;;;4956080;28;20291;-75
2023/08/03 00:52:14;;;;;;;1999.90;999.90;;;;;;;;;;4949188;28;20216;-74
2023/08/03 00:54:59;;;;;;;1999.90;999.90;;;;;;;;;;4956802;28;20582;-74
2023/08/03 00:57:44;;;;;;;1999.90;999.90;;;;;;;;;;4960671;28;20220;-72
2023/08/03 01:00:29;;;;;;;1999.90;999.90;;;;;;;;;;4955063;28;20420;-74
2023/08/03 01:03:14;;;;;;;1999.90;999.90;;;;;;;;;;4960617;28;20216;-73
2023/08/03 01:05:59;;;;;;;1999.90;999.90;;;;;;;;;;4956701;29;20277;-74
2023/08/03 01:08:46;;;;;;;1999.90;999.90;;;;;;;;;;4955975;29;20300;-74
2023/08/03 01:11:31;;;;;;;1999.90;999.90;;;;;;;;;;4955960;29;20393;-74
2023/08/03 01:14:16;;;;;;;1999.90;999.90;;;;;;;;;;4955363;29;20216;-74
2023/08/03 01:17:01;;;;;;;1999.90;999.90;;;;;;;;;;4955741;29;20581;-75
2023/08/03 01:19:46;;;;;;;1999.90;999.90;;;;;;;;;;4955578;29;20241;-75
2023/08/03 01:22:31;;;;;;;1999.90;999.90;;;;;;;;;;4955956;29;20219;-74
2023/08/03 01:25:17;;;;;;;1999.90;999.90;;;;;;;;;;4956136;29;20217;-74
2023/08/03 01:28:04;;;;;;;1999.90;999.90;;;;;;;;;;4955702;29;20326;-74
2023/08/03 01:30:49;;;;;;;1999.90;999.90;;;;;;;;;;4955762;29;20288;-75
2023/08/03 01:33:34;;;;;;;1999.90;999.90;;;;;;;;;;4955854;29;20225;-75
2023/08/03 01:36:19;;;;;;;1999.90;999.90;;;;;;;;;;4955866;29;20256;-75
2023/08/03 01:39:07;;;;;;;1999.90;999.90;;;;;;;;;;4955453;29;20240;-74
2023/08/03 01:41:54;;;;;;;1999.90;999.90;;;;;;;;;;4955491;29;20228;-74
2023/08/03 01:44:39;;;;;;;1999.90;999.90;;;;;;;;;;4955772;29;20341;-75
2023/08/03 01:47:24;;;;;;;1999.90;999.90;;;;;;;;;;4955416;29;20703;-74
2023/08/03 01:50:09;;;;;;;1999.90;999.90;;;;;;;;;;4955230;29;20788;-74
2023/08/03 01:52:54;;;;;;;1999.90;999.90;;;;;;;;;;4955084;29;20704;-74
2023/08/03 01:55:39;;;;;;;1999.90;999.90;;;;;;;;;;4955590;29;20278;-74
2023/08/03 01:58:25;;;;;;;1999.90;999.90;;;;;;;;;;4954903;29;20434;-74
2023/08/03 02:01:10;;;;;;;1999.90;999.90;;;;;;;;;;4954949;29;20221;-74
2023/08/03 02:03:55;;;;;;;1999.90;999.90;;;;;;;;;;4955321;28;20252;-74
2023/08/03 02:06:40;;;;;;;1999.90;999.90;;;;;;;;;;4955339;29;20232;-75
2023/08/03 02:09:25;;;;;;;1999.90;999.90;;;;;;;;;;4954939;29;20357;-75
2023/08/03 02:12:10;;;;;;;1999.90;999.90;;;;;;;;;;4954994;29;20216;-75
2023/08/03 02:14:57;;;;;;;1999.90;999.90;;;;;;;;;;4953469;29;20216;-75
2023/08/03 02:17:42;;;;;;;1999.90;999.90;;;;;;;;;;4955196;29;20317;-74
2023/08/03 02:20:27;;;;;;;1999.90;999.90;;;;;;;;;;4948556;29;20240;-74
2023/08/03 02:23:12;;;;;;;1999.90;999.90;;;;;;;;;;4954527;29;20234;-74
2023/08/03 02:25:56;;;;;;;1999.90;999.90;;;;;;;;;;4954964;29;20216;-74
2023/08/03 02:28:41;;;;;;;1999.90;999.90;;;;;;;;;;4954612;29;20349;-73
2023/08/03 02:31:28;;;;;;;1999.90;999.90;;;;;;;;;;4948208;29;20221;-74
2023/08/03 02:34:13;;;;;;;1999.90;999.90;;;;;;;;;;4954772;29;20705;-74
2023/08/03 02:36:57;;;;;;;1999.90;999.90;;;;;;;;;;4954649;29;20220;-74
2023/08/03 02:39:42;;;;;;;1999.90;999.90;;;;;;;;;;4953544;29;20412;-74
2023/08/03 02:42:27;;;;;;;1999.90;999.90;;;;;;;;;;4948044;29;20700;-74
2023/08/03 02:45:12;;;;;;;1999.90;999.90;;;;;;;;;;4954491;29;20318;-74
2023/08/03 02:47:58;;;;;;;1999.90;999.90;;;;;;;;;;4954470;29;20288;-74
2023/08/03 02:50:43;;;;;;;1999.90;999.90;;;;;;;;;;4954081;28;20228;-75
2023/08/03 02:53:28;;;;;;;1999.90;999.90;;;;;;;;;;4947664;29;20329;-75
2023/08/03 02:56:12;;;;;;;1999.90;999.90;;;;;;;;;;4947862;29;20707;-75
2023/08/03 02:58:57;;;;;;;1999.90;999.90;;;;;;;;;;4953024;29;20428;-75
2023/08/03 03:01:42;;;;;;;1999.90;999.90;;;;;;;;;;4954113;29;20299;-74
2023/08/03 03:04:29;;;;;;;1999.90;999.90;;;;;;;;;;4954323;29;20283;-75
2023/08/03 03:07:14;;;;;;;1999.90;999.90;;;;;;;;;;4954235;29;20891;-73
2023/08/03 03:09:58;;;;;;;1999.90;999.90;;;;;;;;;;4951002;29;20609;-74
2023/08/03 03:12:43;;;;;;;1999.90;999.90;;;;;;;;;;4953930;29;20812;-74
2023/08/03 03:15:28;;;;;;;1999.90;999.90;;;;;;;;;;4953704;28;20212;-74
2023/08/03 03:18:13;;;;;;;1999.90;999.90;;;;;;;;;;4953395;29;20208;-74
2023/08/03 03:20:59;;;;;;;1999.90;999.90;;;;;;;;;;4953726;29;20735;-74
2023/08/03 03:23:44;;;;;;;1999.90;999.90;;;;;;;;;;4953982;29;20583;-75
2023/08/03 03:26:29;;;;;;;1999.90;999.90;;;;;;;;;;4953916;29;20211;-74
2023/08/03 03:29:13;;;;;;;1999.90;999.90;;;;;;;;;;4953510;29;20236;-74
2023/08/03 03:31:58;;;;;;;1999.90;999.90;;;;;;;;;;4953570;29;20288;-75
2023/08/03 03:34:43;;;;;;;1999.90;999.90;;;;;;;;;;4953612;29;20712;-74
2023/08/03 03:37:29;;;;;;;1999.90;999.90;;;;;;;;;;4953279;29;20516;-75
2023/08/03 03:40:14;;;;;;;1999.90;999.90;;;;;;;;;;4953403;29;20772;-75
2023/08/03 03:42:59;;;;;;;1999.90;999.90;;;;;;;;;;4953396;29;20217;-74
2023/08/03 03:45:44;;;;;;;1999.90;999.90;;;;;;;;;;4952499;29;20216;-75
2023/08/03 03:48:29;;;;;;;1999.90;999.90;;;;;;;;;;4953732;29;20716;-75
2023/08/03 03:51:15;;;;;;;1999.90;999.90;;;;;;;;;;4953316;29;20346;-75
2023/08/03 03:54:01;;;;;;;1999.90;999.90;;;;;;;;;;4953612;29;20217;-74
2023/08/03 03:56:46;;;;;;;1999.90;999.90;;;;;;;;;;4952926;29;20421;-74
2023/08/03 03:59:31;;;;;;;1999.90;999.90;;;;;;;;;;4949297;29;20269;-75
2023/08/03 04:02:16;;;;;;;1999.90;999.90;;;;;;;;;;4949440;29;20208;-74
2023/08/03 04:05:01;;;;;;;1999.90;999.90;;;;;;;;;;4953576;29;20616;-74
2023/08/03 04:07:45;;;;;;;1999.90;999.90;;;;;;;;;;4951221;29;20208;-74
2023/08/03 04:10:32;;;;;;;1999.90;999.90;;;;;;;;;;4945627;28;20228;-75
2023/08/03 04:13:17;;;;;;;1999.90;999.90;;;;;;;;;;4950600;29;20712;-74
2023/08/03 04:16:02;;;;;;;1999.90;999.90;;;;;;;;;;4947959;29;20591;-75
2023/08/03 04:18:47;;;;;;;1999.90;999.90;;;;;;;;;;4952362;28;20216;-73
2023/08/03 04:21:32;;;;;;;1999.90;999.90;;;;;;;;;;4943735;28;20880;-72
2023/08/03 04:24:17;;;;;;;1999.90;999.90;;;;;;;;;;4950967;28;20317;-75
2023/08/03 04:27:03;;;;;;;1999.90;999.90;;;;;;;;;;4950552;28;20689;-75
2023/08/03 04:29:48;;;;;;;1999.90;999.90;;;;;;;;;;4956027;29;20287;-74
2023/08/03 04:32:33;;;;;;;1999.90;999.90;;;;;;;;;;4955899;28;20643;-75
2023/08/03 04:35:18;;;;;;;1999.90;999.90;;;;;;;;;;4956195;28;20308;-74
2023/08/03 04:38:03;;;;;;;1999.90;999.90;;;;;;;;;;4958011;29;20291;-74
2023/08/03 04:40:48;;;;;;;1999.90;999.90;;;;;;;;;;4955518;28;20737;-73
2023/08/03 04:43:34;;;;;;;1999.90;999.90;;;;;;;;;;4961904;28;20236;-73
2023/08/03 04:46:19;;;;;;;1999.90;999.90;;;;;;;;;;4954728;29;20221;-73
2023/08/03 04:49:04;;;;;;;1999.90;999.90;;;;;;;;;;4950485;28;20236;-74
2023/08/03 04:51:49;;;;;;;1999.90;999.90;;;;;;;;;;4957279;28;20583;-73
2023/08/03 04:54:34;;;;;;;1999.90;999.90;;;;;;;;;;4949664;29;21041;-74
2023/08/03 04:57:19;;;;;;;1999.90;999.90;;;;;;;;;;4956584;29;20454;-75
2023/08/03 05:00:06;;;;;;;1999.90;999.90;;;;;;;;;;4956461;29;20784;-76
2023/08/03 05:02:51;;;;;;;1999.90;999.90;;;;;;;;;;4956394;29;20220;-75
2023/08/03 05:05:36;;;;;;;1999.90;999.90;;;;;;;;;;4956592;29;20211;-75
2023/08/03 05:08:22;;;;;;;1999.90;999.90;;;;;;;;;;4952856;29;20321;-75
2023/08/03 05:11:07;;;;;;;1999.90;999.90;;;;;;;;;;4955612;29;20229;-75
2023/08/03 05:13:52;;;;;;;1999.90;999.90;;;;;;;;;;4956515;29;20208;-75
2023/08/03 05:16:39;;;;;;;1999.90;999.90;;;;;;;;;;4952094;29;20209;-75
2023/08/03 05:19:23;;;;;;;1999.90;999.90;;;;;;;;;;4955880;29;20235;-74
2023/08/03 05:22:08;;;;;;;1999.90;999.90;;;;;;;;;;4955819;29;20208;-73
2023/08/03 05:24:53;;;;;;;1999.90;999.90;;;;;;;;;;4956123;29;20715;-75
2023/08/03 05:27:38;;;;;;;1999.90;999.90;;;;;;;;;;4956133;29;20589;-75
2023/08/03 05:30:23;;;;;;;1999.90;999.90;;;;;;;;;;4953406;29;20753;-75
2023/08/03 05:33:09;;;;;;;1999.90;999.90;;;;;;;;;;4947713;28;20260;-75
2023/08/03 05:35:54;;;;;;;1999.90;999.90;;;;;;;;;;4953961;29;20544;-75
2023/08/03 05:38:39;;;;;;;1999.90;999.90;;;;;;;;;;4947611;28;20232;-75
2023/08/03 05:41:25;;;;;;;1999.90;999.90;;;;;;;;;;4952341;28;20220;-75
2023/08/03 05:44:11;;;;;;;1999.90;999.90;;;;;;;;;;4955111;29;20204;-73
2023/08/03 05:46:56;;;;;;;1999.90;999.90;;;;;;;;;;4950574;29;20217;-75
2023/08/03 05:49:42;;;;;;;1999.90;999.90;;;;;;;;;;4939848;29;20312;-74
2023/08/03 05:52:27;;;;;;;1999.90;999.90;;;;;;;;;;4954813;29;20284;-75
2023/08/03 05:55:12;;;;;;;1999.90;999.90;;;;;;;;;;4945932;28;20439;-74
2023/08/03 05:57:58;;;;;;;1999.90;999.90;;;;;;;;;;4955042;29;20740;-74
2023/08/03 06:00:43;;;;;;;1999.90;999.90;;;;;;;;;;4952029;29;20300;-74
2023/08/03 06:03:32;;;;;;;1999.90;999.90;;;;;;;;;;4955411;29;20213;-74
2023/08/03 06:06:20;;;;;;;1999.90;999.90;;;;;;;;;;4952263;29;20868;-74
2023/08/03 06:09:05;;;;;;;1999.90;999.90;;;;;;;;;;4947375;29;20241;-75
2023/08/03 06:11:52;;;;;;;1999.90;999.90;;;;;;;;;;4955182;29;20212;-75
2023/08/03 06:14:37;;;;;;;1999.90;999.90;;;;;;;;;;4952374;28;20215;-75
2023/08/03 06:17:23;;;;;;;1999.90;999.90;;;;;;;;;;4954569;29;20697;-75
2023/08/03 06:20:12;;;;;;;1999.90;999.90;;;;;;;;;;4954142;29;20252;-74
2023/08/03 06:22:58;;;;;;;1999.90;999.90;;;;;;;;;;4948665;29;20208;-73
2023/08/03 06:25:43;;;;;;;1999.90;999.90;;;;;;;;;;4951514;28;20677;-75
2023/08/03 06:28:28;;;;;;;1999.90;999.90;;;;;;;;;;4953013;29;20216;-74
2023/08/03 06:31:15;;;;;;;1999.90;999.90;;;;;;;;;;4948307;28;20691;-73
2023/08/03 06:34:02;;;;;;;1999.90;999.90;;;;;;;;;;4953421;29;20532;-74
2023/08/03 06:36:48;;;;;;;1999.90;999.90;;;;;;;;;;4945721;29;20291;-75
2023/08/03 06:39:35;;;;;;;1999.90;999.90;;;;;;;;;;4953552;29;20244;-74
2023/08/03 06:42:20;;;;;;;1999.90;999.90;;;;;;;;;;4950835;28;20345;-74
2023/08/03 06:45:05;;;;;;;1999.90;999.90;;;;;;;;;;4954919;28;20711;-73
2023/08/03 06:47:50;;;;;;;1999.90;999.90;;;;;;;;;;4952868;28;20209;-75
2023/08/03 06:50:35;;;;;;;1999.90;999.90;;;;;;;;;;4953223;28;20315;-75
2023/08/03 06:53:20;;;;;;;1999.90;999.90;;;;;;;;;;4952226;29;20575;-75
2023/08/03 06:56:07;;;;;;;1999.90;999.90;;;;;;;;;;4947932;28;20333;-75
2023/08/03 06:58:52;;;;;;;1999.90;999.90;;;;;;;;;;4947660;29;20208;-76
2023/08/03 07:01:37;;;;;;;1999.90;999.90;;;;;;;;;;4947853;29;20334;-75
2023/08/03 07:04:21;;;;;;;1999.90;999.90;;;;;;;;;;4954377;29;20272;-75
2023/08/03 07:07:07;;;;;;;1999.90;999.90;;;;;;;;;;4954343;29;20632;-74
2023/08/03 07:09:52;;;;;;;1999.90;999.90;;;;;;;;;;4961226;28;20600;-77
2023/08/03 07:12:38;;;;;;;1999.90;999.90;;;;;;;;;;4954461;28;20337;-75
2023/08/03 07:15:23;;;;;;;1999.90;999.90;;;;;;;;;;4952036;28;20283;-77
2023/08/03 07:18:09;;;;;;;1999.90;999.90;;;;;;;;;;4955279;28;20701;-75
2023/08/03 07:20:54;;;;;;;1999.90;999.90;;;;;;;;;;4951310;28;20232;-76
2023/08/03 07:23:39;;;;;;;1999.90;999.90;;;;;;;;;;4953897;28;20588;-76
2023/08/03 07:26:24;;;;;;;1999.90;999.90;;;;;;;;;;4957912;28;20776;-75
2023/08/03 07:29:10;;;;;;;1999.90;999.90;;;;;;;;;;4954048;28;20284;-76
2023/08/03 07:31:55;;;;;;;1999.90;999.90;;;;;;;;;;4942953;28;20438;-75
2023/08/03 07:34:40;;;;;;;1999.90;999.90;;;;;;;;;;4960439;28;20283;-76
2023/08/03 07:37:25;;;;;;;1999.90;999.90;;;;;;;;;;4952956;29;20220;-75
2023/08/03 07:40:10;;;;;;;1999.90;999.90;;;;;;;;;;4954129;29;20348;-74
2023/08/03 07:42:55;;;;;;;1999.90;999.90;;;;;;;;;;4949307;29;20221;-76
2023/08/03 07:45:41;;;;;;;1999.90;999.90;;;;;;;;;;4946587;28;20228;-75
2023/08/03 07:48:26;;;;;;;1999.90;999.90;;;;;;;;;;4950322;28;20245;-75
2023/08/03 07:51:11;;;;;;;1999.90;999.90;;;;;;;;;;4953044;28;20307;-74
2023/08/03 07:53:56;;;;;;;1999.90;999.90;;;;;;;;;;4953510;28;20213;-75
2023/08/03 07:56:41;;;;;;;1999.90;999.90;;;;;;;;;;4950883;28;20237;-75
2023/08/03 07:59:26;;;;;;;1999.90;999.90;;;;;;;;;;4942941;29;20240;-75
2023/08/03 08:02:12;;;;;;;1999.90;999.90;;;;;;;;;;4952876;28;20224;-75
2023/08/03 08:04:57;;;;;;;1999.90;999.90;;;;;;;;;;4957631;29;20829;-74
2023/08/03 08:07:43;;;;;;;1999.90;999.90;;;;;;;;;;4955381;28;20757;-74
2023/08/03 08:10:28;;;;;;;1999.90;999.90;;;;;;;;;;4966057;28;20243;-74
2023/08/03 08:13:13;;;;;;;1999.90;999.90;;;;;;;;;;4949261;29;20231;-73
2023/08/03 08:16:00;;;;;;;1999.90;999.90;;;;;;;;;;4951943;28;20217;-72
2023/08/03 08:18:46;;;;;;;1999.90;999.90;;;;;;;;;;4957214;28;20213;-71
2023/08/03 08:21:31;;;;;;;1999.90;999.90;;;;;;;;;;4957011;29;20209;-74
2023/08/03 08:24:16;;;;;;;1999.90;999.90;;;;;;;;;;4956758;29;20207;-73
2023/08/03 08:27:01;;;;;;;1999.90;999.90;;;;;;;;;;4950341;29;20208;-76
2023/08/03 08:29:46;;;;;;;1999.90;999.90;;;;;;;;;;4957006;29;20224;-75
2023/08/03 08:32:32;;;;;;;1999.90;999.90;;;;;;;;;;4955829;29;20428;-75
2023/08/03 08:35:18;;;;;;;1999.90;999.90;;;;;;;;;;4957320;29;20225;-75
2023/08/03 08:38:05;;;;;;;1999.90;999.90;;;;;;;;;;4953951;28;20212;-75
2023/08/03 08:40:51;;;;;;;1999.90;999.90;;;;;;;;;;4957950;28;20230;-75
2023/08/03 08:43:35;;;;;;;1999.90;999.90;;;;;;;;;;4954561;28;20220;-75
2023/08/03 08:46:20;;;;;;;1999.90;999.90;;;;;;;;;;4957390;28;20219;-75
2023/08/03 08:49:05;;;;;;;1999.90;999.90;;;;;;;;;;4954583;28;20348;-74
2023/08/03 08:51:53;;;;;;;1999.90;999.90;;;;;;;;;;4952269;28;20436;-75
2023/08/03 08:54:38;;;;;;;1999.90;999.90;;;;;;;;;;4962928;28;20294;-76
2023/08/03 08:57:23;;;;;;;1999.90;999.90;;;;;;;;;;4960192;28;20241;-75
2023/08/03 09:00:09;;;;;;;1999.90;999.90;;;;;;;;;;4957162;28;20700;-75
2023/08/03 09:02:54;;;;;;;1999.90;999.90;;;;;;;;;;4962539;28;20597;-76
2023/08/03 09:05:40;;;;;;;1999.90;999.90;;;;;;;;;;4956658;28;20700;-75
2023/08/03 09:08:28;;;;;;;1999.90;999.90;;;;;;;;;;4957142;28;20336;-74
2023/08/03 09:11:13;;;;;;;1999.90;999.90;;;;;;;;;;4955005;28;20232;-75
2023/08/03 09:13:58;;;;;;;1999.90;999.90;;;;;;;;;;4955220;28;20217;-75
2023/08/03 09:16:43;;;;;;;1999.90;999.90;;;;;;;;;;4956290;29;20885;-75
2023/08/03 09:19:37;;;;;;;1999.90;999.90;;;;;;;;;;4955868;29;20271;-76
2023/08/03 09:22:23;;;;;;;1999.90;999.90;;;;;;;;;;4955807;29;20596;-76
2023/08/03 09:25:10;;;;;;;1999.90;999.90;;;;;;;;;;4956339;29;20213;-75
2023/08/03 09:27:56;;;;;;;1999.90;999.90;;;;;;;;;;4958402;28;20207;-76
2023/08/03 09:30:47;;;;;;;1999.90;999.90;;;;;;;;;;4955909;28;20224;-76
2023/08/03 09:33:33;;;;;;;1999.90;999.90;;;;;;;;;;4956087;28;20224;-76
2023/08/03 09:36:18;;;;;;;1999.90;999.90;;;;;;;;;;4955652;28;20242;-75
2023/08/03 09:39:10;;;;;;;1999.90;999.90;;;;;;;;;;4955781;29;20232;-76
2023/08/03 09:41:56;;;;;;;1999.90;999.90;;;;;;;;;;4955410;29;20221;-75
2023/08/03 09:44:42;;;;;;;1999.90;999.90;;;;;;;;;;4953553;28;20211;-75
2023/08/03 09:47:27;;;;;;;1999.90;999.90;;;;;;;;;;4954150;28;20352;-75
2023/08/03 09:50:11;;;;;;;1999.90;999.90;;;;;;;;;;4951800;29;20448;-74
2023/08/03 09:52:57;;;;;;;1999.90;999.90;;;;;;;;;;4953071;28;20212;-76
2023/08/03 09:55:46;;;;;;;1999.90;999.90;;;;;;;;;;4950367;29;20209;-75
2023/08/03 09:58:38;;;;;;;1999.90;999.90;;;;;;;;;;4950207;29;20216;-77
2023/08/03 10:01:24;;;;;;;1999.90;999.90;;;;;;;;;;4952928;29;20268;-75
2023/08/03 10:04:14;;;;;;;1999.90;999.90;;;;;;;;;;4949278;29;20876;-74
2023/08/03 10:07:00;;;;;;;1999.90;999.90;;;;;;;;;;4952768;29;20207;-76
2023/08/03 10:09:46;;;;;;;1999.90;999.90;;;;;;;;;;4952494;29;20304;-76
2023/08/03 10:12:35;;;;;;;1999.90;999.90;;;;;;;;;;4950349;29;20217;-76
2023/08/03 10:15:21;;;;;;;1999.90;999.90;;;;;;;;;;4948505;29;20356;-75
2023/08/03 10:18:06;;;;;;;1999.90;999.90;;;;;;;;;;4956558;28;20216;-76
2023/08/03 10:20:52;;;;;;;1999.90;999.90;;;;;;;;;;4954756;29;20298;-76
2023/08/03 10:23:38;;;;;;;1999.90;999.90;;;;;;;;;;4954434;28;20236;-76
2023/08/03 10:26:24;;;;;;;1999.90;999.90;;;;;;;;;;4952280;28;20705;-76
2023/08/03 10:29:09;;;;;;;1999.90;999.90;;;;;;;;;;4950699;29;20586;-76
2023/08/03 10:31:56;;;;;;;1999.90;999.90;;;;;;;;;;4956611;28;20279;-74
2023/08/03 10:34:41;;;;;;;1999.90;999.90;;;;;;;;;;4954729;29;20287;-72
2023/08/03 10:37:26;;;;;;;1999.90;999.90;;;;;;;;;;4954731;29;20333;-71
2023/08/03 10:40:22;;;;;;;1999.90;999.90;;;;;;;;;;4954637;29;20231;-72
2023/08/03 10:43:10;;;;;;;1999.90;999.90;;;;;;;;;;4950678;28;20677;-73
2023/08/03 10:45:55;;;;;;;1999.90;999.90;;;;;;;;;;4953860;28;20214;-70
2023/08/03 10:48:42;;;;;;;1999.90;999.90;;;;;;;;;;4953635;28;20690;-71
2023/08/03 10:51:27;;;;;;;1999.90;999.90;;;;;;;;;;4955470;28;20807;-72
2023/08/03 10:54:12;;;;;;;1999.90;999.90;;;;;;;;;;4953540;28;20223;-72
2023/08/03 10:57:01;;;;;;;1999.90;999.90;;;;;;;;;;4953971;28;20268;-71
2023/08/03 10:59:47;;;;;;;1999.90;999.90;;;;;;;;;;4960074;28;20237;-72
2023/08/03 11:02:34;;;;;;;1999.90;999.90;;;;;;;;;;4953783;28;20582;-71
2023/08/03 11:05:20;;;;;;;1999.90;999.90;;;;;;;;;;4951522;28;20259;-72
2023/08/03 11:08:05;;;;;;;1999.90;999.90;;;;;;;;;;4952831;28;20351;-72
2023/08/03 11:10:50;;;;;;;1999.90;999.90;;;;;;;;;;4957197;28;20232;-73
2023/08/03 11:13:35;;;;;;;1999.90;999.90;;;;;;;;;;4950951;28;20298;-72
2023/08/03 11:16:23;;;;;;;1999.90;999.90;;;;;;;;;;4952446;28;20212;-72
2023/08/03 11:19:08;;;;;;;1999.90;999.90;;;;;;;;;;4953935;28;20251;-71
2023/08/03 11:21:54;;;;;;;1999.90;999.90;;;;;;;;;;4953737;28;20216;-73
2023/08/03 11:24:38;;;;;;;1999.90;999.90;;;;;;;;;;4954288;28;20283;-73
2023/08/03 11:27:23;;;;;;;1999.90;999.90;;;;;;;;;;4958533;28;20488;-72
2023/08/03 11:30:09;;;;;;;1999.90;999.90;;;;;;;;;;4953878;28;20734;-73
2023/08/03 11:32:57;;;;;;;1999.90;999.90;;;;;;;;;;4950186;28;20213;-74
2023/08/03 11:35:43;;;;;;;1999.90;999.90;;;;;;;;;;4945125;29;20290;-73
2023/08/03 11:38:29;;;;;;;1999.90;999.90;;;;;;;;;;4947054;28;20205;-74
2023/08/03 11:41:16;;;;;;;1999.90;999.90;;;;;;;;;;4946753;28;20334;-73
2023/08/03 11:44:01;;;;;;;1999.90;999.90;;;;;;;;;;4953066;29;20211;-74
2023/08/03 11:46:49;;;;;;;1999.90;999.90;;;;;;;;;;4947391;28;20914;-73
2023/08/03 11:49:34;;;;;;;1999.90;999.90;;;;;;;;;;4953026;28;20325;-73
2023/08/03 11:52:19;;;;;;;1999.90;999.90;;;;;;;;;;4944650;28;20242;-72
2023/08/03 11:55:06;;;;;;;1999.90;999.90;;;;;;;;;;4953205;29;20292;-72
2023/08/03 11:58:11;;;;;;;1999.90;999.90;;;;;;;;;;4943465;28;20233;-72
2023/08/03 12:00:57;;;;;;;1999.90;999.90;;;;;;;;;;4950055;28;20227;-72
2023/08/03 12:03:41;;;;;;;1999.90;999.90;;;;;;;;;;4953659;29;20219;-72
2023/08/03 12:06:26;;;;;;;1999.90;999.90;;;;;;;;;;4947755;28;20215;-73
2023/08/03 12:09:17;;;;;;;1999.90;999.90;;;;;;;;;;4948802;28;20237;-71
2023/08/03 12:12:04;;;;;;;1999.90;999.90;;;;;;;;;;4952185;28;20244;-72
2023/08/03 12:14:48;;;;;;;1999.90;999.90;;;;;;;;;;4952635;28;20212;-72
2023/08/03 12:17:33;;;;;;;1999.90;999.90;;;;;;;;;;4949022;28;20675;-73
2023/08/03 12:20:18;;;;;;;1999.90;999.90;;;;;;;;;;4939675;28;20256;-72
2023/08/03 12:23:03;;;;;;;1999.90;999.90;;;;;;;;;;4949167;29;20208;-72
2023/08/03 12:25:48;;;;;;;1999.90;999.90;;;;;;;;;;4948277;28;20445;-72
2023/08/03 12:28:34;;;;;;;1999.90;999.90;;;;;;;;;;4953349;29;20212;-73
2023/08/03 12:31:19;;;;;;;1999.90;999.90;;;;;;;;;;4950328;28;20237;-71
2023/08/03 12:34:04;;;;;;;1999.90;999.90;;;;;;;;;;4952045;28;20257;-72
2023/08/03 12:36:49;;;;;;;1999.90;999.90;;;;;;;;;;4945917;28;20209;-71
2023/08/03 12:39:34;;;;;;;1999.90;999.90;;;;;;;;;;4953549;28;20262;-72
2023/08/03 12:42:19;;;;;;;1999.90;999.90;;;;;;;;;;4945680;28;20260;-73
2023/08/03 12:45:06;;;;;;;1999.90;999.90;;;;;;;;;;4951114;28;20440;-72
2023/08/03 12:47:51;;;;;;;1999.90;999.90;;;;;;;;;;4947623;28;20227;-71
2023/08/03 12:50:36;;;;;;;1999.90;999.90;;;;;;;;;;4949509;28;20597;-72
2023/08/03 12:53:21;;;;;;;1999.90;999.90;;;;;;;;;;4945782;28;20234;-73
2023/08/03 12:56:05;;;;;;;1999.90;999.90;;;;;;;;;;4955573;29;20745;-72
2023/08/03 12:58:50;;;;;;;1999.90;999.90;;;;;;;;;;4957291;28;20217;-73
2023/08/03 13:01:36;;;;;;;1999.90;999.90;;;;;;;;;;4955550;29;20217;-74
2023/08/03 13:04:21;;;;;;;1999.90;999.90;;;;;;;;;;4949679;29;20298;-73
2023/08/03 13:07:07;;;;;;;1999.90;999.90;;;;;;;;;;4954697;28;20779;-73
2023/08/03 13:09:51;;;;;;;1999.90;999.90;;;;;;;;;;4945433;28;20237;-73
2023/08/03 13:12:36;;;;;;;1999.90;999.90;;;;;;;;;;4953808;29;20233;-73
2023/08/03 13:15:21;;;;;;;1999.90;999.90;;;;;;;;;;4951916;28;20322;-73
2023/08/03 13:18:08;;;;;;;1999.90;999.90;;;;;;;;;;4951759;28;20221;-73
2023/08/03 13:20:53;;;;;;;1999.90;999.90;;;;;;;;;;4950755;28;20246;-73
2023/08/03 13:23:38;;;;;;;1999.90;999.90;;;;;;;;;;4958926;28;20229;-73
2023/08/03 13:26:23;;;;;;;1999.90;999.90;;;;;;;;;;4949025;29;20205;-73
2023/08/03 13:29:08;;;;;;;1999.90;999.90;;;;;;;;;;4959055;28;20250;-73
2023/08/03 13:31:54;;;;;;;1999.90;999.90;;;;;;;;;;4952640;28;20246;-73
2023/08/03 13:34:40;;;;;;;1999.90;999.90;;;;;;;;;;4954085;28;20212;-73
2023/08/03 13:37:25;;;;;;;1999.90;999.90;;;;;;;;;;4953797;28;20209;-73
2023/08/03 13:40:10;;;;;;;1999.90;999.90;;;;;;;;;;4955860;29;20605;-73
2023/08/03 13:42:55;;;;;;;1999.90;999.90;;;;;;;;;;4945550;28;20452;-73
2023/08/03 13:45:40;;;;;;;1999.90;999.90;;;;;;;;;;4954981;28;20256;-73
2023/08/03 13:48:25;;;;;;;1999.90;999.90;;;;;;;;;;4948547;29;20205;-73
2023/08/03 13:51:12;;;;;;;1999.90;999.90;;;;;;;;;;4952762;29;20784;-73
2023/08/03 13:53:56;;;;;;;1999.90;999.90;;;;;;;;;;4948694;28;20218;-73
2023/08/03 13:56:42;;;;;;;1999.90;999.90;;;;;;;;;;4951320;28;20705;-73
2023/08/03 13:59:27;;;;;;;1999.90;999.90;;;;;;;;;;4944303;28;20313;-72
2023/08/03 14:02:12;;;;;;;1999.90;999.90;;;;;;;;;;4961558;28;20214;-73
2023/08/03 14:04:57;;;;;;;1999.90;999.90;;;;;;;;;;4950860;29;20305;-72
2023/08/03 14:07:44;;;;;;;1999.90;999.90;;;;;;;;;;4949642;28;20328;-73
2023/08/03 14:10:28;;;;;;;1999.90;999.90;;;;;;;;;;4944087;28;20594;-73
2023/08/03 14:13:13;;;;;;;1999.90;999.90;;;;;;;;;;4949848;28;20233;-72
2023/08/03 14:15:58;;;;;;;1999.90;999.90;;;;;;;;;;4947047;28;20302;-72
2023/08/03 14:18:43;;;;;;;1999.90;999.90;;;;;;;;;;4943791;28;20209;-73
2023/08/03 14:21:28;;;;;;;1999.90;999.90;;;;;;;;;;4950489;28;20210;-73
2023/08/03 14:24:14;;;;;;;1999.90;999.90;;;;;;;;;;4950973;28;20217;-75
2023/08/03 14:26:59;;;;;;;1999.90;999.90;;;;;;;;;;4951475;28;20568;-73
2023/08/03 14:29:44;;;;;;;1999.90;999.90;;;;;;;;;;4947695;28;20723;-73
2023/08/03 14:32:29;;;;;;;1999.90;999.90;;;;;;;;;;4943708;29;20226;-74
2023/08/03 14:35:13;;;;;;;1999.90;999.90;;;;;;;;;;4943498;28;20222;-73
2023/08/03 14:37:58;;;;;;;1999.90;999.90;;;;;;;;;;4940265;29;20338;-72
2023/08/03 14:40:45;;;;;;;1999.90;999.90;;;;;;;;;;4948734;28;20583;-73
2023/08/03 14:43:30;;;;;;;1999.90;999.90;;;;;;;;;;4947179;28;20222;-73
2023/08/03 14:46:15;;;;;;;1999.90;999.90;;;;;;;;;;4951031;29;20222;-73
2023/08/03 14:49:00;;;;;;;1999.90;999.90;;;;;;;;;;4954490;28;20239;-73
2023/08/03 14:51:45;;;;;;;1999.90;999.90;;;;;;;;;;4952812;29;20587;-73
2023/08/03 14:54:30;;;;;;;1999.90;999.90;;;;;;;;;;4948572;28;20228;-73
2023/08/03 14:57:16;;;;;;;1999.90;999.90;;;;;;;;;;4951093;28;20358;-72
2023/08/03 15:00:01;;;;;;;1999.90;999.90;;;;;;;;;;4951911;28;20716;-72
2023/08/03 15:02:47;;;;;;;1999.90;999.90;;;;;;;;;;4952612;28;20212;-72
2023/08/03 15:05:32;;;;;;;1999.90;999.90;;;;;;;;;;4951337;28;20220;-72
2023/08/03 15:08:17;;;;;;;1999.90;999.90;;;;;;;;;;4951665;29;20701;-71
2023/08/03 15:11:02;;;;;;;1999.90;999.90;;;;;;;;;;4949854;28;20353;-72
2023/08/03 15:13:48;;;;;;;1999.90;999.90;;;;;;;;;;4954614;28;20213;-72
2023/08/03 15:16:34;;;;;;;1999.90;999.90;;;;;;;;;;4950115;28;20210;-72
2023/08/03 15:19:18;;;;;;;1999.90;999.90;;;;;;;;;;4949226;28;20432;-72
2023/08/03 15:22:04;;;;;;;1999.90;999.90;;;;;;;;;;4950265;28;20302;-72
2023/08/03 15:24:49;;;;;;;1999.90;999.90;;;;;;;;;;4951727;28;20248;-71
2023/08/03 15:27:34;;;;;;;1999.90;999.90;;;;;;;;;;4953749;29;20216;-72
2023/08/03 15:30:20;;;;;;;1999.90;999.90;;;;;;;;;;4953729;28;20237;-72
2023/08/03 15:33:05;;;;;;;1999.90;999.90;;;;;;;;;;4950971;29;20275;-72
2023/08/03 15:35:50;;;;;;;1999.90;999.90;;;;;;;;;;4951894;29;20261;-72
2023/08/03 15:38:36;;;;;;;1999.90;999.90;;;;;;;;;;4949259;29;20431;-72
2023/08/03 15:41:26;;;;;;;1999.90;999.90;;;;;;;;;;4949105;28;20616;-72